sensor_id;sensor_type;location;lat;lon;timestamp;temperature;humidity
69895;DHT22;57172;52.034;5.090;2023-10-13T00:00:28;18.20;91.80
69895;DHT22;57172;52.034;5.090;2023-10-13T00:03:04;18.20;91.80
69895;DHT22;57172;52.034;5.090;2023-10-13T00:05:33;18.20;91.90
69895;DHT22;57172;52.034;5.090;2023-10-13T00:08:01;18.20;91.90
69895;DHT22;57172;52.034;5.090;2023-10-13T00:10:32;18.30;91.70
69895;DHT22;57172;52.034;5.090;2023-10-13T00:13:03;18.30;91.60
69895;DHT22;57172;52.034;5.090;2023-10-13T00:15:40;18.20;91.50
69895;DHT22;57172;52.034;5.090;2023-10-13T00:18:13;18.30;91.50
69895;DHT22;57172;52.034;5.090;2023-10-13T00:20:41;18.20;90.90
69895;DHT22;57172;52.034;5.090;2023-10-13T00:23:16;18.20;90.90
69895;DHT22;57172;52.034;5.090;2023-10-13T00:25:49;18.10;91.00
69895;DHT22;57172;52.034;5.090;2023-10-13T00:28:26;18.00;91.20
69895;DHT22;57172;52.034;5.090;2023-10-13T00:31:02;18.00;91.40
69895;DHT22;57172;52.034;5.090;2023-10-13T00:33:38;18.00;91.50
69895;DHT22;57172;52.034;5.090;2023-10-13T00:36:08;18.00;91.80
69895;DHT22;57172;52.034;5.090;2023-10-13T00:38:37;18.00;91.70
69895;DHT22;57172;52.034;5.090;2023-10-13T00:41:04;18.00;91.80
69895;DHT22;57172;52.034;5.090;2023-10-13T00:43:46;18.00;91.80
69895;DHT22;57172;52.034;5.090;2023-10-13T00:46:34;18.10;91.80
69895;DHT22;57172;52.034;5.090;2023-10-13T00:49:03;18.00;91.70
69895;DHT22;57172;52.034;5.090;2023-10-13T00:51:35;18.00;91.70
69895;DHT22;57172;52.034;5.090;2023-10-13T00:54:04;18.10;91.80
69895;DHT22;57172;52.034;5.090;2023-10-13T00:56:37;18.00;91.80
69895;DHT22;57172;52.034;5.090;2023-10-13T00:59:08;18.00;91.70
69895;DHT22;57172;52.034;5.090;2023-10-13T01:01:36;18.00;91.70
69895;DHT22;57172;52.034;5.090;2023-10-13T01:04:04;18.00;91.80
69895;DHT22;57172;52.034;5.090;2023-10-13T01:06:35;17.90;92.00
69895;DHT22;57172;52.034;5.090;2023-10-13T01:09:06;17.90;92.00
69895;DHT22;57172;52.034;5.090;2023-10-13T01:11:47;17.90;92.00
69895;DHT22;57172;52.034;5.090;2023-10-13T01:14:19;17.90;91.90
69895;DHT22;57172;52.034;5.090;2023-10-13T01:16:48;17.90;92.00
69895;DHT22;57172;52.034;5.090;2023-10-13T01:19:20;17.90;91.90
69895;DHT22;57172;52.034;5.090;2023-10-13T01:21:52;17.90;91.90
69895;DHT22;57172;52.034;5.090;2023-10-13T01:24:30;17.90;91.90
69895;DHT22;57172;52.034;5.090;2023-10-13T01:27:05;17.90;91.90
69895;DHT22;57172;52.034;5.090;2023-10-13T01:29:45;17.90;91.90
69895;DHT22;57172;52.034;5.090;2023-10-13T01:32:19;17.90;91.90
69895;DHT22;57172;52.034;5.090;2023-10-13T01:34:46;17.90;91.90
69895;DHT22;57172;52.034;5.090;2023-10-13T01:37:15;17.80;92.00
69895;DHT22;57172;52.034;5.090;2023-10-13T01:39:43;17.80;92.10
69895;DHT22;57172;52.034;5.090;2023-10-13T01:42:15;17.90;92.10
69895;DHT22;57172;52.034;5.090;2023-10-13T01:44:51;17.90;92.10
69895;DHT22;57172;52.034;5.090;2023-10-13T01:47:18;17.90;92.00
69895;DHT22;57172;52.034;5.090;2023-10-13T01:49:46;17.90;92.00
69895;DHT22;57172;52.034;5.090;2023-10-13T01:52:18;17.90;92.00
69895;DHT22;57172;52.034;5.090;2023-10-13T01:54:46;17.90;92.00
69895;DHT22;57172;52.034;5.090;2023-10-13T01:57:15;17.90;91.90
69895;DHT22;57172;52.034;5.090;2023-10-13T01:59:48;17.90;91.90
69895;DHT22;57172;52.034;5.090;2023-10-13T02:02:17;17.90;91.90
69895;DHT22;57172;52.034;5.090;2023-10-13T02:04:56;17.90;91.80
69895;DHT22;57172;52.034;5.090;2023-10-13T02:07:27;17.90;91.80
69895;DHT22;57172;52.034;5.090;2023-10-13T02:09:58;17.80;91.80
69895;DHT22;57172;52.034;5.090;2023-10-13T02:12:25;17.80;91.90
69895;DHT22;57172;52.034;5.090;2023-10-13T02:15:03;17.80;91.80
69895;DHT22;57172;52.034;5.090;2023-10-13T02:17:32;17.80;91.90
69895;DHT22;57172;52.034;5.090;2023-10-13T02:20:09;17.80;91.90
69895;DHT22;57172;52.034;5.090;2023-10-13T02:22:42;17.80;91.90
69895;DHT22;57172;52.034;5.090;2023-10-13T02:25:19;17.80;91.90
69895;DHT22;57172;52.034;5.090;2023-10-13T02:28:09;17.80;91.80
69895;DHT22;57172;52.034;5.090;2023-10-13T02:30:48;17.80;91.70
69895;DHT22;57172;52.034;5.090;2023-10-13T02:33:17;17.80;91.60
69895;DHT22;57172;52.034;5.090;2023-10-13T02:36:01;17.80;91.60
69895;DHT22;57172;52.034;5.090;2023-10-13T02:38:32;17.70;91.70
69895;DHT22;57172;52.034;5.090;2023-10-13T02:41:12;17.70;91.90
69895;DHT22;57172;52.034;5.090;2023-10-13T02:43:45;17.70;92.10
69895;DHT22;57172;52.034;5.090;2023-10-13T02:46:12;17.60;92.30
69895;DHT22;57172;52.034;5.090;2023-10-13T02:48:42;17.60;92.40
69895;DHT22;57172;52.034;5.090;2023-10-13T02:51:12;17.60;92.50
69895;DHT22;57172;52.034;5.090;2023-10-13T02:53:47;17.60;92.60
69895;DHT22;57172;52.034;5.090;2023-10-13T02:56:17;17.60;92.60
69895;DHT22;57172;52.034;5.090;2023-10-13T02:58:52;17.60;92.80
69895;DHT22;57172;52.034;5.090;2023-10-13T03:01:20;17.60;92.80
69895;DHT22;57172;52.034;5.090;2023-10-13T03:03:50;17.60;92.90
69895;DHT22;57172;52.034;5.090;2023-10-13T03:06:22;17.60;93.00
69895;DHT22;57172;52.034;5.090;2023-10-13T03:08:54;17.60;93.10
69895;DHT22;57172;52.034;5.090;2023-10-13T03:11:21;17.60;93.10
69895;DHT22;57172;52.034;5.090;2023-10-13T03:13:50;17.50;93.10
69895;DHT22;57172;52.034;5.090;2023-10-13T03:16:19;17.50;93.30
69895;DHT22;57172;52.034;5.090;2023-10-13T03:18:47;17.50;93.40
69895;DHT22;57172;52.034;5.090;2023-10-13T03:21:26;17.50;93.60
69895;DHT22;57172;52.034;5.090;2023-10-13T03:23:57;17.50;93.60
69895;DHT22;57172;52.034;5.090;2023-10-13T03:26:33;17.50;93.60
69895;DHT22;57172;52.034;5.090;2023-10-13T03:29:04;17.40;93.80
69895;DHT22;57172;52.034;5.090;2023-10-13T03:31:35;17.30;94.10
69895;DHT22;57172;52.034;5.090;2023-10-13T03:34:05;17.20;94.50
69895;DHT22;57172;52.034;5.090;2023-10-13T03:36:37;17.20;94.80
69895;DHT22;57172;52.034;5.090;2023-10-13T03:39:23;17.20;95.00
69895;DHT22;57172;52.034;5.090;2023-10-13T03:41:57;17.10;95.30
69895;DHT22;57172;52.034;5.090;2023-10-13T03:44:26;17.10;95.50
69895;DHT22;57172;52.034;5.090;2023-10-13T03:46:57;17.10;95.70
69895;DHT22;57172;52.034;5.090;2023-10-13T03:49:31;17.10;95.90
69895;DHT22;57172;52.034;5.090;2023-10-13T03:52:04;17.10;96.00
69895;DHT22;57172;52.034;5.090;2023-10-13T03:54:32;17.00;96.00
69895;DHT22;57172;52.034;5.090;2023-10-13T03:57:01;17.00;96.10
69895;DHT22;57172;52.034;5.090;2023-10-13T03:59:38;17.10;96.20
69895;DHT22;57172;52.034;5.090;2023-10-13T04:02:05;17.00;96.20
69895;DHT22;57172;52.034;5.090;2023-10-13T04:04:44;17.10;96.20
69895;DHT22;57172;52.034;5.090;2023-10-13T04:07:15;17.10;96.30
69895;DHT22;57172;52.034;5.090;2023-10-13T04:10:01;17.10;96.30
69895;DHT22;57172;52.034;5.090;2023-10-13T04:12:58;17.10;96.40
69895;DHT22;57172;52.034;5.090;2023-10-13T04:15:43;17.10;96.70
69895;DHT22;57172;52.034;5.090;2023-10-13T04:18:30;17.00;96.90
69895;DHT22;57172;52.034;5.090;2023-10-13T04:21:13;17.00;97.00
69895;DHT22;57172;52.034;5.090;2023-10-13T04:24:03;17.10;97.10
69895;DHT22;57172;52.034;5.090;2023-10-13T04:26:51;17.10;97.20
69895;DHT22;57172;52.034;5.090;2023-10-13T04:29:37;17.10;97.30
69895;DHT22;57172;52.034;5.090;2023-10-13T04:32:17;17.10;97.60
69895;DHT22;57172;52.034;5.090;2023-10-13T04:35:00;17.10;97.70
69895;DHT22;57172;52.034;5.090;2023-10-13T04:37:39;17.10;97.80
69895;DHT22;57172;52.034;5.090;2023-10-13T04:40:17;17.10;97.80
69895;DHT22;57172;52.034;5.090;2023-10-13T04:42:47;17.10;97.80
69895;DHT22;57172;52.034;5.090;2023-10-13T04:45:17;17.20;97.90
69895;DHT22;57172;52.034;5.090;2023-10-13T04:48:00;17.20;98.00
69895;DHT22;57172;52.034;5.090;2023-10-13T04:50:48;17.20;98.20
69895;DHT22;57172;52.034;5.090;2023-10-13T04:53:18;17.30;98.40
69895;DHT22;57172;52.034;5.090;2023-10-13T04:56:01;17.30;98.50
69895;DHT22;57172;52.034;5.090;2023-10-13T04:58:47;17.40;98.60
69895;DHT22;57172;52.034;5.090;2023-10-13T05:01:32;17.50;98.50
69895;DHT22;57172;52.034;5.090;2023-10-13T05:04:28;17.50;98.70
69895;DHT22;57172;52.034;5.090;2023-10-13T05:07:05;17.60;98.80
69895;DHT22;57172;52.034;5.090;2023-10-13T05:09:51;17.70;98.90
69895;DHT22;57172;52.034;5.090;2023-10-13T05:12:36;17.70;98.70
69895;DHT22;57172;52.034;5.090;2023-10-13T05:15:22;17.80;98.60
69895;DHT22;57172;52.034;5.090;2023-10-13T05:18:07;17.80;98.40
69895;DHT22;57172;52.034;5.090;2023-10-13T05:20:55;17.80;98.30
69895;DHT22;57172;52.034;5.090;2023-10-13T05:23:40;17.80;98.30
69895;DHT22;57172;52.034;5.090;2023-10-13T05:26:26;17.80;98.10
69895;DHT22;57172;52.034;5.090;2023-10-13T05:29:11;17.80;97.80
69895;DHT22;57172;52.034;5.090;2023-10-13T05:31:57;17.80;97.60
69895;DHT22;57172;52.034;5.090;2023-10-13T05:34:43;17.80;97.60
69895;DHT22;57172;52.034;5.090;2023-10-13T05:37:28;17.80;97.30
69895;DHT22;57172;52.034;5.090;2023-10-13T05:40:14;17.70;97.30
69895;DHT22;57172;52.034;5.090;2023-10-13T05:42:59;17.70;97.00
69895;DHT22;57172;52.034;5.090;2023-10-13T05:45:45;17.70;96.90
69895;DHT22;57172;52.034;5.090;2023-10-13T05:48:36;17.70;96.80
69895;DHT22;57172;52.034;5.090;2023-10-13T05:51:22;17.70;96.60
69895;DHT22;57172;52.034;5.090;2023-10-13T05:54:07;17.70;96.60
69895;DHT22;57172;52.034;5.090;2023-10-13T05:56:52;17.70;96.50
69895;DHT22;57172;52.034;5.090;2023-10-13T05:59:38;17.70;96.50
69895;DHT22;57172;52.034;5.090;2023-10-13T06:02:24;17.70;96.60
69895;DHT22;57172;52.034;5.090;2023-10-13T06:05:12;17.70;96.70
69895;DHT22;57172;52.034;5.090;2023-10-13T06:07:58;17.70;96.60
69895;DHT22;57172;52.034;5.090;2023-10-13T06:10:45;17.70;96.50
69895;DHT22;57172;52.034;5.090;2023-10-13T06:13:31;17.70;96.50
69895;DHT22;57172;52.034;5.090;2023-10-13T06:16:17;17.70;96.40
69895;DHT22;57172;52.034;5.090;2023-10-13T06:19:03;17.70;96.60
69895;DHT22;57172;52.034;5.090;2023-10-13T06:21:49;17.70;96.90
69895;DHT22;57172;52.034;5.090;2023-10-13T06:24:35;17.70;96.90
69895;DHT22;57172;52.034;5.090;2023-10-13T06:27:20;17.70;96.90
69895;DHT22;57172;52.034;5.090;2023-10-13T06:30:06;17.80;96.90
69895;DHT22;57172;52.034;5.090;2023-10-13T06:32:33;17.80;97.10
69895;DHT22;57172;52.034;5.090;2023-10-13T06:35:01;17.80;97.10
69895;DHT22;57172;52.034;5.090;2023-10-13T06:37:35;17.90;97.10
69895;DHT22;57172;52.034;5.090;2023-10-13T06:40:12;17.90;97.20
69895;DHT22;57172;52.034;5.090;2023-10-13T06:42:48;17.90;97.30
69895;DHT22;57172;52.034;5.090;2023-10-13T06:45:15;17.90;97.40
69895;DHT22;57172;52.034;5.090;2023-10-13T06:47:44;17.90;97.50
69895;DHT22;57172;52.034;5.090;2023-10-13T06:50:12;18.00;97.70
69895;DHT22;57172;52.034;5.090;2023-10-13T06:52:43;18.00;97.80
69895;DHT22;57172;52.034;5.090;2023-10-13T06:55:10;18.00;98.00
69895;DHT22;57172;52.034;5.090;2023-10-13T06:57:58;18.10;98.10
69895;DHT22;57172;52.034;5.090;2023-10-13T07:00:27;18.10;98.20
69895;DHT22;57172;52.034;5.090;2023-10-13T07:02:56;18.20;98.10
69895;DHT22;57172;52.034;5.090;2023-10-13T07:05:46;18.20;98.20
69895;DHT22;57172;52.034;5.090;2023-10-13T07:08:16;18.30;98.10
69895;DHT22;57172;52.034;5.090;2023-10-13T07:10:55;18.30;98.00
69895;DHT22;57172;52.034;5.090;2023-10-13T07:13:32;18.30;97.90
69895;DHT22;57172;52.034;5.090;2023-10-13T07:16:06;18.30;97.80
69895;DHT22;57172;52.034;5.090;2023-10-13T07:18:55;18.30;97.60
69895;DHT22;57172;52.034;5.090;2023-10-13T07:21:22;18.40;97.50
69895;DHT22;57172;52.034;5.090;2023-10-13T07:23:58;18.40;97.60
69895;DHT22;57172;52.034;5.090;2023-10-13T07:26:36;18.40;97.30
69895;DHT22;57172;52.034;5.090;2023-10-13T07:29:10;18.50;97.10
69895;DHT22;57172;52.034;5.090;2023-10-13T07:31:38;18.50;96.90
69895;DHT22;57172;52.034;5.090;2023-10-13T07:34:07;18.50;96.90
69895;DHT22;57172;52.034;5.090;2023-10-13T07:36:55;18.60;96.60
69895;DHT22;57172;52.034;5.090;2023-10-13T07:39:29;18.60;96.50
69895;DHT22;57172;52.034;5.090;2023-10-13T07:42:01;18.60;96.20
69895;DHT22;57172;52.034;5.090;2023-10-13T07:44:32;18.60;96.00
69895;DHT22;57172;52.034;5.090;2023-10-13T07:47:13;18.60;95.70
69895;DHT22;57172;52.034;5.090;2023-10-13T07:49:41;18.70;95.80
69895;DHT22;57172;52.034;5.090;2023-10-13T07:52:10;18.70;95.60
69895;DHT22;57172;52.034;5.090;2023-10-13T07:54:48;18.70;95.40
69895;DHT22;57172;52.034;5.090;2023-10-13T07:57:16;18.70;95.70
69895;DHT22;57172;52.034;5.090;2023-10-13T07:59:44;18.80;95.50
69895;DHT22;57172;52.034;5.090;2023-10-13T08:02:17;18.90;95.80
69895;DHT22;57172;52.034;5.090;2023-10-13T08:05:09;19.00;95.00
69895;DHT22;57172;52.034;5.090;2023-10-13T08:07:36;19.00;94.40
69895;DHT22;57172;52.034;5.090;2023-10-13T08:10:07;19.10;93.90
69895;DHT22;57172;52.034;5.090;2023-10-13T08:12:36;19.20;93.90
69895;DHT22;57172;52.034;5.090;2023-10-13T08:15:05;19.20;93.10
69895;DHT22;57172;52.034;5.090;2023-10-13T08:17:59;19.20;93.00
69895;DHT22;57172;52.034;5.090;2023-10-13T08:20:31;19.30;93.00
69895;DHT22;57172;52.034;5.090;2023-10-13T08:23:05;19.40;92.80
69895;DHT22;57172;52.034;5.090;2023-10-13T08:25:41;19.40;92.00
69895;DHT22;57172;52.034;5.090;2023-10-13T08:28:27;19.40;91.50
69895;DHT22;57172;52.034;5.090;2023-10-13T08:31:23;19.50;91.00
69895;DHT22;57172;52.034;5.090;2023-10-13T08:33:52;19.50;91.40
69895;DHT22;57172;52.034;5.090;2023-10-13T08:36:32;19.60;90.90
69895;DHT22;57172;52.034;5.090;2023-10-13T08:38:59;19.60;90.60
69895;DHT22;57172;52.034;5.090;2023-10-13T08:41:47;19.70;90.10
69895;DHT22;57172;52.034;5.090;2023-10-13T08:44:44;19.70;89.70
69895;DHT22;57172;52.034;5.090;2023-10-13T08:47:19;19.80;89.90
69895;DHT22;57172;52.034;5.090;2023-10-13T08:49:52;19.80;89.90
69895;DHT22;57172;52.034;5.090;2023-10-13T08:52:24;19.80;89.50
69895;DHT22;57172;52.034;5.090;2023-10-13T08:55:10;19.80;88.30
69895;DHT22;57172;52.034;5.090;2023-10-13T08:57:57;19.80;88.70
69895;DHT22;57172;52.034;5.090;2023-10-13T09:00:29;19.90;89.40
69895;DHT22;57172;52.034;5.090;2023-10-13T09:03:22;19.90;87.90
69895;DHT22;57172;52.034;5.090;2023-10-13T09:05:56;19.80;88.00
69895;DHT22;57172;52.034;5.090;2023-10-13T09:08:33;19.80;87.30
69895;DHT22;57172;52.034;5.090;2023-10-13T09:11:11;19.80;87.30
69895;DHT22;57172;52.034;5.090;2023-10-13T09:13:40;19.90;87.80
69895;DHT22;57172;52.034;5.090;2023-10-13T09:16:14;19.90;87.40
69895;DHT22;57172;52.034;5.090;2023-10-13T09:18:49;19.90;87.20
69895;DHT22;57172;52.034;5.090;2023-10-13T09:21:19;19.90;87.40
69895;DHT22;57172;52.034;5.090;2023-10-13T09:24:14;20.00;87.60
69895;DHT22;57172;52.034;5.090;2023-10-13T09:26:50;20.10;87.60
69895;DHT22;57172;52.034;5.090;2023-10-13T09:29:23;20.10;88.10
69895;DHT22;57172;52.034;5.090;2023-10-13T09:32:04;20.20;87.60
69895;DHT22;57172;52.034;5.090;2023-10-13T09:34:38;20.20;86.90
69895;DHT22;57172;52.034;5.090;2023-10-13T09:37:07;20.30;86.50
69895;DHT22;57172;52.034;5.090;2023-10-13T09:39:39;20.30;85.30
69895;DHT22;57172;52.034;5.090;2023-10-13T09:42:19;20.30;85.20
69895;DHT22;57172;52.034;5.090;2023-10-13T09:44:50;20.40;84.80
69895;DHT22;57172;52.034;5.090;2023-10-13T09:47:22;20.40;84.80
69895;DHT22;57172;52.034;5.090;2023-10-13T09:50:00;20.50;85.00
69895;DHT22;57172;52.034;5.090;2023-10-13T09:52:35;20.50;82.60
69895;DHT22;57172;52.034;5.090;2023-10-13T09:55:17;20.50;83.30
69895;DHT22;57172;52.034;5.090;2023-10-13T09:57:54;20.50;83.10
69895;DHT22;57172;52.034;5.090;2023-10-13T10:00:28;20.50;83.00
69895;DHT22;57172;52.034;5.090;2023-10-13T10:03:13;20.50;83.70
69895;DHT22;57172;52.034;5.090;2023-10-13T10:06:00;20.60;83.00
69895;DHT22;57172;52.034;5.090;2023-10-13T10:08:33;20.60;82.50
69895;DHT22;57172;52.034;5.090;2023-10-13T10:11:14;20.60;83.20
69895;DHT22;57172;52.034;5.090;2023-10-13T10:14:02;20.70;82.00
69895;DHT22;57172;52.034;5.090;2023-10-13T10:16:43;20.70;82.20
69895;DHT22;57172;52.034;5.090;2023-10-13T10:19:15;20.70;81.40
69895;DHT22;57172;52.034;5.090;2023-10-13T10:21:42;20.80;81.10
69895;DHT22;57172;52.034;5.090;2023-10-13T10:24:14;20.80;82.10
69895;DHT22;57172;52.034;5.090;2023-10-13T10:26:52;20.90;81.00
69895;DHT22;57172;52.034;5.090;2023-10-13T10:29:19;21.00;81.30
69895;DHT22;57172;52.034;5.090;2023-10-13T10:31:46;21.20;82.20
69895;DHT22;57172;52.034;5.090;2023-10-13T10:34:15;21.30;81.40
69895;DHT22;57172;52.034;5.090;2023-10-13T10:36:47;21.50;80.90
69895;DHT22;57172;52.034;5.090;2023-10-13T10:39:15;21.50;77.60
69895;DHT22;57172;52.034;5.090;2023-10-13T10:41:44;21.60;79.20
69895;DHT22;57172;52.034;5.090;2023-10-13T10:44:13;21.70;77.00
69895;DHT22;57172;52.034;5.090;2023-10-13T10:46:43;21.80;77.30
69895;DHT22;57172;52.034;5.090;2023-10-13T10:49:40;21.90;76.10
69895;DHT22;57172;52.034;5.090;2023-10-13T10:52:09;21.90;75.90
69895;DHT22;57172;52.034;5.090;2023-10-13T10:54:45;21.90;76.00
69895;DHT22;57172;52.034;5.090;2023-10-13T10:57:18;21.90;76.10
69895;DHT22;57172;52.034;5.090;2023-10-13T10:59:46;21.90;76.00
69895;DHT22;57172;52.034;5.090;2023-10-13T11:02:13;21.90;75.50
69895;DHT22;57172;52.034;5.090;2023-10-13T11:04:50;21.90;74.40
69895;DHT22;57172;52.034;5.090;2023-10-13T11:07:25;21.90;75.00
69895;DHT22;57172;52.034;5.090;2023-10-13T11:09:54;21.90;74.30
69895;DHT22;57172;52.034;5.090;2023-10-13T11:12:33;21.90;73.50
69895;DHT22;57172;52.034;5.090;2023-10-13T11:15:07;21.80;73.10
69895;DHT22;57172;52.034;5.090;2023-10-13T11:17:50;21.70;73.30
69895;DHT22;57172;52.034;5.090;2023-10-13T11:20:25;21.70;73.10
69895;DHT22;57172;52.034;5.090;2023-10-13T11:22:53;21.70;73.50
69895;DHT22;57172;52.034;5.090;2023-10-13T11:25:29;21.70;71.60
69895;DHT22;57172;52.034;5.090;2023-10-13T11:27:57;21.70;72.20
69895;DHT22;57172;52.034;5.090;2023-10-13T11:30:27;21.80;70.60
69895;DHT22;57172;52.034;5.090;2023-10-13T11:33:21;21.90;70.50
69895;DHT22;57172;52.034;5.090;2023-10-13T11:35:51;22.00;70.30
69895;DHT22;57172;52.034;5.090;2023-10-13T11:38:30;22.10;69.30
69895;DHT22;57172;52.034;5.090;2023-10-13T11:41:16;22.10;68.80
69895;DHT22;57172;52.034;5.090;2023-10-13T11:43:52;22.20;69.10
69895;DHT22;57172;52.034;5.090;2023-10-13T11:46:22;22.20;68.80
69895;DHT22;57172;52.034;5.090;2023-10-13T11:49:06;22.20;67.80
69895;DHT22;57172;52.034;5.090;2023-10-13T11:51:35;22.20;66.80
69895;DHT22;57172;52.034;5.090;2023-10-13T11:54:05;22.20;67.10
69895;DHT22;57172;52.034;5.090;2023-10-13T11:56:32;22.20;66.10
69895;DHT22;57172;52.034;5.090;2023-10-13T11:58:58;22.30;66.80
69895;DHT22;57172;52.034;5.090;2023-10-13T12:01:28;22.40;66.90
69895;DHT22;57172;52.034;5.090;2023-10-13T12:04:14;22.40;66.60
69895;DHT22;57172;52.034;5.090;2023-10-13T12:07:00;22.40;66.00
69895;DHT22;57172;52.034;5.090;2023-10-13T12:09:41;22.30;66.00
69895;DHT22;57172;52.034;5.090;2023-10-13T12:12:18;22.30;65.70
69895;DHT22;57172;52.034;5.090;2023-10-13T12:14:45;22.30;66.50
69895;DHT22;57172;52.034;5.090;2023-10-13T12:17:25;22.30;66.50
69895;DHT22;57172;52.034;5.090;2023-10-13T12:19:55;22.40;66.60
69895;DHT22;57172;52.034;5.090;2023-10-13T12:22:24;22.40;66.00
69895;DHT22;57172;52.034;5.090;2023-10-13T12:24:56;22.40;65.10
69895;DHT22;57172;52.034;5.090;2023-10-13T12:27:23;22.50;65.50
69895;DHT22;57172;52.034;5.090;2023-10-13T12:29:51;22.50;65.50
69895;DHT22;57172;52.034;5.090;2023-10-13T12:32:19;22.50;64.90
69895;DHT22;57172;52.034;5.090;2023-10-13T12:34:49;22.50;64.60
69895;DHT22;57172;52.034;5.090;2023-10-13T12:37:32;22.50;64.70
69895;DHT22;57172;52.034;5.090;2023-10-13T12:40:06;22.50;64.30
69895;DHT22;57172;52.034;5.090;2023-10-13T12:42:52;22.40;64.70
69895;DHT22;57172;52.034;5.090;2023-10-13T12:45:39;22.40;65.20
69895;DHT22;57172;52.034;5.090;2023-10-13T12:48:25;22.40;65.30
69895;DHT22;57172;52.034;5.090;2023-10-13T12:51:10;22.40;65.10
69895;DHT22;57172;52.034;5.090;2023-10-13T12:53:51;22.40;65.60
69895;DHT22;57172;52.034;5.090;2023-10-13T12:56:19;22.40;65.80
69895;DHT22;57172;52.034;5.090;2023-10-13T12:58:53;22.40;65.30
69895;DHT22;57172;52.034;5.090;2023-10-13T13:01:22;22.30;65.40
69895;DHT22;57172;52.034;5.090;2023-10-13T13:03:52;22.20;65.80
69895;DHT22;57172;52.034;5.090;2023-10-13T13:06:27;22.10;66.30
69895;DHT22;57172;52.034;5.090;2023-10-13T13:08:58;21.80;67.30
69895;DHT22;57172;52.034;5.090;2023-10-13T13:11:26;21.60;68.20
69895;DHT22;57172;52.034;5.090;2023-10-13T13:13:55;21.60;68.80
69895;DHT22;57172;52.034;5.090;2023-10-13T13:16:22;21.60;69.10
69895;DHT22;57172;52.034;5.090;2023-10-13T13:18:52;21.60;69.30
69895;DHT22;57172;52.034;5.090;2023-10-13T13:21:21;21.50;69.60
69895;DHT22;57172;52.034;5.090;2023-10-13T13:23:51;21.40;70.10
69895;DHT22;57172;52.034;5.090;2023-10-13T13:26:24;21.20;70.50
69895;DHT22;57172;52.034;5.090;2023-10-13T13:28:51;21.10;70.90
69895;DHT22;57172;52.034;5.090;2023-10-13T13:31:19;21.10;71.40
69895;DHT22;57172;52.034;5.090;2023-10-13T13:33:52;21.10;71.80
69895;DHT22;57172;52.034;5.090;2023-10-13T13:36:19;21.00;71.90
69895;DHT22;57172;52.034;5.090;2023-10-13T13:38:48;20.90;72.60
69895;DHT22;57172;52.034;5.090;2023-10-13T13:41:17;20.80;73.10
69895;DHT22;57172;52.034;5.090;2023-10-13T13:43:50;20.60;73.80
69895;DHT22;57172;52.034;5.090;2023-10-13T13:46:25;20.60;74.50
69895;DHT22;57172;52.034;5.090;2023-10-13T13:48:59;20.50;75.30
69895;DHT22;57172;52.034;5.090;2023-10-13T13:51:28;20.50;75.60
69895;DHT22;57172;52.034;5.090;2023-10-13T13:53:56;20.50;76.00
69895;DHT22;57172;52.034;5.090;2023-10-13T13:56:23;20.50;76.30
69895;DHT22;57172;52.034;5.090;2023-10-13T13:58:55;20.50;76.40
69895;DHT22;57172;52.034;5.090;2023-10-13T14:01:22;20.40;76.60
69895;DHT22;57172;52.034;5.090;2023-10-13T14:03:52;20.20;77.90
69895;DHT22;57172;52.034;5.090;2023-10-13T14:06:24;20.00;78.80
69895;DHT22;57172;52.034;5.090;2023-10-13T14:08:57;19.80;79.80
69895;DHT22;57172;52.034;5.090;2023-10-13T14:11:29;19.70;80.60
69895;DHT22;57172;52.034;5.090;2023-10-13T14:14:09;19.50;81.80
69895;DHT22;57172;52.034;5.090;2023-10-13T14:16:41;19.30;82.90
69895;DHT22;57172;52.034;5.090;2023-10-13T14:19:12;19.20;83.80
69895;DHT22;57172;52.034;5.090;2023-10-13T14:21:39;19.10;84.70
69895;DHT22;57172;52.034;5.090;2023-10-13T14:24:06;19.00;85.40
69895;DHT22;57172;52.034;5.090;2023-10-13T14:26:44;19.00;86.10
69895;DHT22;57172;52.034;5.090;2023-10-13T14:29:11;18.90;87.00
69895;DHT22;57172;52.034;5.090;2023-10-13T14:31:40;18.90;87.40
69895;DHT22;57172;52.034;5.090;2023-10-13T14:34:08;18.80;87.80
69895;DHT22;57172;52.034;5.090;2023-10-13T14:36:35;18.80;88.40
69895;DHT22;57172;52.034;5.090;2023-10-13T14:39:05;18.80;88.80
69895;DHT22;57172;52.034;5.090;2023-10-13T14:41:36;18.80;89.10
69895;DHT22;57172;52.034;5.090;2023-10-13T14:44:04;18.80;89.40
69895;DHT22;57172;52.034;5.090;2023-10-13T14:46:33;18.80;89.60
69895;DHT22;57172;52.034;5.090;2023-10-13T14:49:03;18.80;90.00
69895;DHT22;57172;52.034;5.090;2023-10-13T14:51:30;18.80;90.20
69895;DHT22;57172;52.034;5.090;2023-10-13T14:53:59;18.70;90.50
69895;DHT22;57172;52.034;5.090;2023-10-13T14:56:27;18.70;90.80
69895;DHT22;57172;52.034;5.090;2023-10-13T14:58:54;18.70;91.10
69895;DHT22;57172;52.034;5.090;2023-10-13T15:01:22;18.70;91.40
69895;DHT22;57172;52.034;5.090;2023-10-13T15:03:52;18.70;91.70
69895;DHT22;57172;52.034;5.090;2023-10-13T15:06:24;18.70;92.00
69895;DHT22;57172;52.034;5.090;2023-10-13T15:08:52;18.70;92.20
69895;DHT22;57172;52.034;5.090;2023-10-13T15:11:23;18.60;92.30
69895;DHT22;57172;52.034;5.090;2023-10-13T15:13:54;18.70;92.40
69895;DHT22;57172;52.034;5.090;2023-10-13T15:16:24;18.70;92.50
69895;DHT22;57172;52.034;5.090;2023-10-13T15:18:52;18.70;92.70
69895;DHT22;57172;52.034;5.090;2023-10-13T15:21:23;18.70;92.90
69895;DHT22;57172;52.034;5.090;2023-10-13T15:23:57;18.70;92.90
69895;DHT22;57172;52.034;5.090;2023-10-13T15:26:30;18.70;93.20
69895;DHT22;57172;52.034;5.090;2023-10-13T15:28:57;18.70;93.50
69895;DHT22;57172;52.034;5.090;2023-10-13T15:31:27;18.70;93.60
69895;DHT22;57172;52.034;5.090;2023-10-13T15:34:02;18.70;93.60
69895;DHT22;57172;52.034;5.090;2023-10-13T15:36:43;18.70;93.60
69895;DHT22;57172;52.034;5.090;2023-10-13T15:39:11;18.70;93.50
69895;DHT22;57172;52.034;5.090;2023-10-13T15:41:42;18.60;93.80
69895;DHT22;57172;52.034;5.090;2023-10-13T15:44:12;18.60;94.00
69895;DHT22;57172;52.034;5.090;2023-10-13T15:46:40;18.60;94.20
69895;DHT22;57172;52.034;5.090;2023-10-13T15:49:09;18.60;94.40
69895;DHT22;57172;52.034;5.090;2023-10-13T15:51:41;18.60;94.40
69895;DHT22;57172;52.034;5.090;2023-10-13T15:54:08;18.60;94.60
69895;DHT22;57172;52.034;5.090;2023-10-13T15:56:49;18.60;94.60
69895;DHT22;57172;52.034;5.090;2023-10-13T15:59:17;18.60;94.80
69895;DHT22;57172;52.034;5.090;2023-10-13T16:01:44;18.60;94.70
69895;DHT22;57172;52.034;5.090;2023-10-13T16:04:14;18.70;94.80
69895;DHT22;57172;52.034;5.090;2023-10-13T16:06:43;18.70;94.80
69895;DHT22;57172;52.034;5.090;2023-10-13T16:09:14;18.70;94.90
69895;DHT22;57172;52.034;5.090;2023-10-13T16:11:52;18.80;94.90
69895;DHT22;57172;52.034;5.090;2023-10-13T16:14:20;18.80;94.70
69895;DHT22;57172;52.034;5.090;2023-10-13T16:16:49;18.80;94.60